Almhorst, Germany

10:39 PM CEST on April 27, 2017 (GMT +0200)
Binsenpfad | | Change Station

Elev 164 ft 52.39 °N, 9.59 °E | Updated 1 minute ago

Clear
Clear
45.3 °F
Feels Like 45 °F
N
0.6
Wind Variable Wind from SE
Gusts 1.2 mph

Today
High -- | Low -- °F
--% Chance of Precip.
Yesterday
High -- | Low -- °F
Precip. -- in
Pressure 29.95 in
Visibility 6.2 miles
Clouds Few 6000 ft
Mostly Cloudy 8000 ft
Windchill 45 °F
Dew Point 32 °F
Humidity 59%
Rainfall 0.00 in
Snow Depth Not available.
5:58 AM 8:41 PM
Waxing Crescent, 3% visible
METAR ETNW 272020Z 21005KT 9999 FEW060 BKN080 05/M00 Q1014 BLU
Pressure 29.95 in
Visibility 6.2 miles
Clouds Few 6000 ft
Mostly Cloudy 8000 ft
Windchill 45 °F
Dew Point 32 °F
Humidity 59%
Rainfall 0.00 in
Snow Depth Not available.
5:58 AM 8:41 PM
Waxing Crescent, 3% visible
METAR ETNW 272020Z 21005KT 9999 FEW060 BKN080 05/M00 Q1014 BLU

Get Severe Weather Alerts

Thanks for signing up!

Be on the lookout for a verification email in your inbox.

You'll start receiving the daily forecast at 8 AM.

×

10-Day Weather Forecast

×

Almanac

Astronomy

Apr. 27, 2017 Rise Set
Actual Time
Civil Twilight
Nautical Twilight
Astronomical Twilight
Moon
Length of Visible Light
Length of Day
Tomorrow will be .
, % of the Moon is Illuminated

Today's Extremes

Country Highs Country Lows

Community

WunderPhotos

WunderBlog® & News

Nearby

Air Quality

  Air Quality AQ Index Pollutant
Not available.

Snow Depth

Station Depth Elevation

Earthquake Activity

City Distance Mag. Time & Date
Minimum magnitude displayed is 2.5.

Coastal Water Temperatures

Place Temperature

Stations

Nearby Weather Stations

Station Location Temp. Windchill Dew Point Humidity Wind Precip. Elev Updated Type